ケアンズ国際空港の過去48時間の天気

ケアンズ国際空港 (Cairns Airport)

現在時刻: 9/23 07:24 AEST (9/22 21:24 UTC) 以下の時間は現地時間です。

過去48時間のMETAR気象情報
時間 風向 風速(m/s) 視程 気温(℃) 湿度(%) 気圧(hPa) 天気現象
23 07:00 5 10km以上 21 88 1020 弱いしゅう雨
23 06:30 4 10km以上 21 88 1020 弱いしゅう雨
23 06:00 4 10km以上 22 83 1020
23 05:30 南南東 4 10km以上 21 83 1019
23 05:24 南南東 4 10km以上 21 83 1019
23 05:00 南南東 4 10km以上 21 88 1019 霧雨
23 04:36 4 10km以上 22 78 1019 弱い霧雨
23 04:07 4 10km以上 22 78 1019
23 04:00 4 10km以上 22 78 1019
23 03:30 4 10km以上 22 78 1019
23 03:00 3 10km以上 22 78 1019
23 02:30 4 10km以上 22 78 1019
23 02:00 3 10km以上 22 78 1020
23 01:45 4 10km以上 22 78 1020
23 01:00 3 10km以上 22 78 1021
23 00:30 2 10km以上 22 78 1021
23 00:00 2 10km以上 22 78 1021
22 23:30 4 10km以上 22 78 1021
22 23:00 3 10km以上 22 78 1021 弱いしゅう雨
22 22:30 4 10km以上 22 78 1021
22 22:00 3 10km以上 23 69 1021
22 21:30 4 10km以上 23 73 1021
22 21:00 南南東 4 10km以上 23 69 1021
22 20:30 3 10km以上 23 73 1021
22 20:06 南南東 4 10km以上 23 69 1021
22 19:33 3 10km以上 23 69 1020
22 19:00 南南東 6 10km以上 24 65 1020
22 18:30 南南東 5 10km以上 24 65 1019
22 18:00 南東 6 10km以上 24 65 1019
22 17:30 南東 7 10km以上 25 61 1019
22 17:00 南東 8 10km以上 26 58 1018
22 16:30 南東 8 10km以上 26 54 1018
22 16:00 東南東 7 10km以上 28 45 1018
22 15:30 東南東 8 10km以上 28 42 1018
22 15:00 東南東 7 10km以上 28 45 1018
22 14:30 南東 7 10km以上 28 42 1018
22 14:00 東南東 7 10km以上 29 43 1018
22 13:30 東南東 7 10km以上 29 35 1019
22 13:00 東南東 7 10km以上 29 40 1019
22 12:30 東南東 7 10km以上 29 37 1019
22 12:00 南東 8 10km以上 28 45 1020
22 11:30 南東 7 10km以上 27 51 1020
22 11:00 南東 6 10km以上 26 54 1020
22 10:30 南南東 7 10km以上 26 54 1020
22 10:00 南南東 9 10km以上 26 51 1020
22 09:30 南東 9 10km以上 26 58 1020
22 09:00 南南東 6 10km以上 25 61 1020
22 08:30 5 10km以上 24 65 1020
22 08:00 南南東 5 10km以上 23 69 1020
22 07:30 南南東 5 10km以上 23 69 1019
22 07:00 南南東 5 10km以上 22 73 1019
22 06:30 南南東 4 10km以上 21 78 1019
22 06:00 南南東 4 10km以上 21 78 1019
22 05:30 南南東 4 10km以上 21 78 1018
YBCS 222100Z AUTO 17009KT 9999 -SHRA SCT028 SCT035 OVC062 21/19 Q1020 FM2100 16010KT 9999 -SHRA SCT025 SCT040
YBCS 222030Z AUTO 17007KT 9999 -SHRA SCT037 OVC062 21/19 Q1020
YBCS 222000Z AUTO 17007KT 9999 // OVC062 22/19 Q1020 RF00.0/000.0 FM2000 16010KT 9999 -SHRA SCT025 SCT040
YBCS 221930Z AUTO 15007KT 9999 // SCT033 SCT062 21/18 Q1019
YBCS 221924Z AUTO 15007KT 9999 // SCT023 SCT028 SCT033 21/18 Q1019 FM1930 16010KT 9999 -SHRA SCT025 SCT040
YBCS 221900Z AUTO 15008KT 9999 DZ SCT021 SCT028 BKN035 21/19 Q1019 NOSIG
YBCS 221836Z AUTO 17007KT 9999 -DZ SCT028 SCT036 BKN058 22/18 Q1019
YBCS 221807Z AUTO 17007KT 9999 // SCT029 OVC056 22/18 Q1019 FM1800 16010KT 9999 -SHRA SCT025 SCT040
YBCS 221800Z AUTO 17007KT 9999 // OVC054 22/18 Q1019
YBCS 221730Z AUTO 18008KT 9999 // OVC054 22/18 Q1019 RF00.0/000.0 FM1730 16010KT 9999 -SHRA SCT025 SCT040
YBCS 221700Z AUTO 17006KT 9999 // SCT028 SCT053 BKN062 22/18 Q1019
YBCS 221630Z AUTO 18007KT 9999 // SCT059 22/18 Q1019 RF00.0/000.0 NOSIG
YBCS 221600Z AUTO 18006KT 9999 // BKN061 22/18 Q1020 RF00.0/000.0 FM1600 16010KT 9999 -SHRA SCT025 SCT040
YBCS 221545Z AUTO 17007KT 9999 // OVC061 22/18 Q1020 RF00/0/000/0 FM1545 16010KT 9999 -SHRA SCT025 SCT040
YBCS 221500Z AUTO 17005KT 9999 // SCT061 22/18 Q1021 RF00.0/000.0 FM1500 16010KT 9999 -SHRA SCT025 SCT040
YBCS 221430Z AUTO 17004KT 9999 // SCT059 22/18 Q1021 RF00.0/000.0 FM1500 16010KT 9999 -SHRA SCT025 SCT040
YBCS 221400Z AUTO 17004KT 9999 // BKN059 22/18 Q1021 RF00.0/000.0 FM1430 16010KT 9999 -SHRA SCT025 SCT040
YBCS 221330Z AUTO 17007KT 9999 // SCT032 OVC053 22/18 Q1021
YBCS 221300Z AUTO 17006KT 9999 -SHRA SCT030 SCT035 BKN043 22/18 Q1021 FM1300 16010KT 9999 -SHRA SCT025 SCT040
YBCS 221230Z AUTO 18007KT 9999 // SCT035 OVC053 22/18 Q1021
YBCS 221200Z AUTO 18006KT 9999 // OVC054 23/17 Q1021 RF00.0/000.0 FM1200 16010KT 9999 -SHRA SCT025 SCT040
YBCS 221130Z AUTO 17007KT 9999 // SCT044 BKN052 23/18 Q1021
YBCS 221100Z AUTO 16007KT 9999 // SCT029 BKN035 23/17 Q1021
YBCS 221030Z AUTO 17006KT 9999 // SCT030 23/18 Q1021 RF00.0/000.0 FM1100 16010KT 9999 -SHRA SCT025 SCT040
YBCS 221006Z AUTO 16007KT 9999 // SCT057 23/17 Q1021 RF00/0/000/0 FM1100 16010KT 9999 -SHRA SCT025 SCT040
YBCS 220933Z AUTO 17005KT 9999 // BKN060 23/17 Q1020 RF00/0/000/0 FM1100 16010KT 9999 -SHRA SCT025 SCT040
YBCS 220900Z AUTO 15012KT 9999 // NCD 24/17 Q1020 RF00.0/000.0 NOSIG
YBCS 220830Z AUTO 15010KT 9999 // NCD 24/17 Q1019 RF00.0/000.0 NOSIG
YBCS 220800Z AUTO 14012KT 9999 // NCD 24/17 Q1019 RF00.0/000.0 NOSIG
YBCS 220730Z AUTO 13014KT 9999 // NCD 25/17 Q1019 RF00.0/000.0 NOSIG
YBCS 220700Z AUTO 13015KT 9999 // NCD 26/17 Q1018 RF00.0/000.0 NOSIG
YBCS 220630Z AUTO 13015KT 9999 // NCD 26/16 Q1018 RF00.0/000.0 NOSIG
YBCS 220600Z AUTO 11013KT 9999 // NCD 28/15 Q1018 RF00.0/000.0 NOSIG
YBCS 220530Z AUTO 12015KT 9999 // NCD 28/14 Q1018 RF00.0/000.0 NOSIG
YBCS 220500Z AUTO 12014KT 9999 // NCD 28/15 Q1018 RF00.0/000.0 NOSIG
YBCS 220430Z AUTO 13013KT 9999 // NCD 28/14 Q1018 RF00.0/000.0 NOSIG
YBCS 220400Z AUTO 12014KT 9999 // NCD 29/15 Q1018 RF00.0/000.0 NOSIG
YBCS 220330Z AUTO 11014KT 9999 // NCD 29/12 Q1019 RF00.0/000.0 NOSIG
YBCS 220300Z AUTO 12013KT 9999 // NCD 29/14 Q1019 RF00.0/000.0 NOSIG
YBCS 220230Z AUTO 12014KT 9999 // SCT054 29/13 Q1019 RF00.0/000.0 NOSIG
YBCS 220200Z AUTO 14015KT 9999 // SCT047 SCT063 28/15 Q1020
YBCS 220130Z AUTO 13014KT 9999 // SCT038 BKN047 BKN054 27/16 Q1020
YBCS 220100Z AUTO 13011KT 9999 // SCT035 SCT041 SCT047 26/16 Q1020
YBCS 220030Z AUTO 15014KT 9999 // SCT037 BKN043 BKN048 26/16 Q1020
YBCS 220000Z AUTO 15017KT 9999 // SCT035 SCT048 BKN059 26/15 Q1020
YBCS 212330Z AUTO 14018KT 9999 // SCT034 BKN057 26/17 Q1020
YBCS 212300Z AUTO 16011KT 9999 // SCT048 BKN057 25/17 Q1020
YBCS 212230Z AUTO 17009KT 9999 // SCT059 24/17 Q1020 RF00.0/000.0 NOSIG
YBCS 212200Z AUTO 16010KT 9999 // SCT035 SCT053 23/17 Q1020
YBCS 212130Z AUTO 16010KT 9999 // NCD 23/17 Q1019 RF00.0/000.0 NOSIG
YBCS 212100Z AUTO 15009KT 9999 // NCD 22/17 Q1019 RF00.0/000.0 NOSIG
YBCS 212030Z AUTO 16008KT 9999 // NCD 21/17 Q1019 RF00.0/000.0 NOSIG
YBCS 212000Z AUTO 16007KT 9999 // SCT057 21/17 Q1019 RF00.0/000.0 NOSIG
YBCS 211930Z AUTO 16007KT 9999 // NCD 21/17 Q1018 RF00.0/000.0